Detroit, Oregon
Current Conditions -  °F | °C
As of 10:56 AM on Friday 24 Oct 2014 (Local Time) from KSLE Reporting Station
Overcast Overcast  
Wind Chill: 53°   Ceiling: 12000
Heat Index: 53°   Visibility: 10mi
Dew Point: 48°   Wind: 8mph
Humidity: 83%   Direction: 10°N
Pressure: 29.94"   Gusts: NA
Location:  44.73°N, 122.15°W
Report Text: KSLE 241756Z 01007KT 10SM SCT009 OVC120 12/09 A2994 RMK AO2 SLP137 T01170089 10117 20094 58014
Loading
Personal Weather Stations






























Interactive Weather Map New forecast layout! Learn more

10-Day Weather Forecast

Advertisements
Track Severe Weather on mobile